CheckWX is a tool to help pilots better visualize weather data.  It is not intended as a substitute for an official pre-flight weather briefing.

15:13:59 UTC

KEVV METAR
Evansville Regional Airport
Evansville, Indiana, USA
Current

20 mins ago

KEVV 261454Z 21008KT 10SM FEW055 27/21 A3006 RMK AO2 SLP175 T02720206 58004
Observed
May-26 @ 14:54 UTC
Wind
  • 210° at 8 KTS
Visibility
10 SM
Flight Rules
VFR
Cloud Levels
  • Few at 5,500' AGL
Temperature
27°C / 81°F
Dewpoint
21°C / 70°F
Heat Index
29°C / 85°F
Humidity
70%
Altimeter
30.06" Hg
Pressure
1017.92 hPa
Previous

1 hour ago

KEVV 261354Z 21005KT 10SM FEW070 26/20 A3006 RMK AO2 SLP176 T02560200
Observed
May-26 @ 13:54 UTC
Wind
  • 210° at 5 KTS
Visibility
10 SM
Flight Rules
VFR
Cloud Levels
  • Few at 7,000' AGL
Temperature
26°C / 79°F
Dewpoint
20°C / 68°F
Humidity
70%
Altimeter
30.06" Hg
Pressure
1017.92 hPa
Previous

2 hours ago

KEVV 261254Z 22003KT 10SM CLR 24/20 A3007 RMK AO2 SLP179 T02390200
Observed
May-26 @ 12:54 UTC
Wind
  • 220° at 3 KTS
Visibility
10 SM
Flight Rules
VFR
Cloud Levels
  • Clear skies
Temperature
24°C / 75°F
Dewpoint
20°C / 68°F
Humidity
78%
Altimeter
30.07" Hg
Pressure
1018.32 hPa